Time;durP1;ratioP1;P1;durP2;ratioP2;P2;SDS_P1;SDS_P2;PMS_P1;PMS_P2;Temp;Humidity;BMP_temperature;BMP_pressure;BME280_temperature;BME280_humidity;BME280_pressure;Samples;Min_cycle;Max_cycle;Signal;HPM_P1;HPM_P2
2023/01/25 00:01:05;;;;;;;5.05;4.65;;;;;;;;;;5054391;28;20392;-66
2023/01/25 00:03:31;;;;;;;7.35;5.70;;;;;;;;;;5036540;28;20033;-66
2023/01/25 00:06:00;;;;;;;13.55;7.80;;;;;;;;;;5054001;28;20092;-66
2023/01/25 00:08:25;;;;;;;9.07;6.43;;;;;;;;;;5054230;28;20069;-66
2023/01/25 00:10:51;;;;;;;6.38;5.18;;;;;;;;;;5054194;28;20071;-66
2023/01/25 00:13:16;;;;;;;4.85;4.43;;;;;;;;;;5036348;28;20048;-66
2023/01/25 00:15:42;;;;;;;5.25;4.78;;;;;;;;;;5033738;28;20120;-66
2023/01/25 00:18:07;;;;;;;4.60;4.20;;;;;;;;;;5033962;28;20099;-66
2023/01/25 00:20:32;;;;;;;8.82;5.55;;;;;;;;;;5033723;28;20033;-66
2023/01/25 00:22:58;;;;;;;7.72;5.43;;;;;;;;;;5033942;28;20037;-66
2023/01/25 00:25:23;;;;;;;8.13;5.65;;;;;;;;;;5034099;28;20404;-68
2023/01/25 00:27:48;;;;;;;7.85;6.10;;;;;;;;;;5016794;28;20029;-67
2023/01/25 00:30:15;;;;;;;8.80;5.90;;;;;;;;;;5015988;28;20026;-67
2023/01/25 00:33:02;;;;;;;6.55;5.93;;;;;;;;;;5016325;28;20030;-66
2023/01/25 00:35:34;;;;;;;6.15;5.50;;;;;;;;;;5015601;28;20052;-67
2023/01/25 00:38:00;;;;;;;9.38;5.90;;;;;;;;;;5033975;28;20030;-67
2023/01/25 00:40:26;;;;;;;7.97;5.13;;;;;;;;;;4999494;28;20033;-68
2023/01/25 00:42:51;;;;;;;4.38;4.05;;;;;;;;;;5033878;28;20025;-68
2023/01/25 00:45:18;;;;;;;4.00;3.70;;;;;;;;;;5016690;28;20029;-68
2023/01/25 00:47:43;;;;;;;4.93;4.30;;;;;;;;;;5033927;28;20032;-67
2023/01/25 00:50:09;;;;;;;5.05;4.65;;;;;;;;;;4999688;28;20018;-67
2023/01/25 00:52:35;;;;;;;5.63;4.85;;;;;;;;;;5033753;28;20053;-67
2023/01/25 00:55:01;;;;;;;5.03;4.63;;;;;;;;;;4999408;28;20029;-67
2023/01/25 00:57:26;;;;;;;6.18;5.57;;;;;;;;;;5032579;28;20041;-67
2023/01/25 00:59:53;;;;;;;6.78;5.65;;;;;;;;;;5016185;28;20036;-69
2023/01/25 01:02:19;;;;;;;6.68;5.75;;;;;;;;;;5016035;28;20045;-69
2023/01/25 01:04:44;;;;;;;12.68;8.25;;;;;;;;;;5016052;28;20138;-68
2023/01/25 01:07:11;;;;;;;13.48;9.07;;;;;;;;;;5016097;28;20026;-68
2023/01/25 01:09:36;;;;;;;9.52;7.18;;;;;;;;;;5033526;28;20429;-68
2023/01/25 01:12:01;;;;;;;6.18;5.57;;;;;;;;;;5033578;28;20048;-68
2023/01/25 01:14:27;;;;;;;6.18;4.97;;;;;;;;;;5015825;28;20028;-69
2023/01/25 01:16:52;;;;;;;5.93;4.80;;;;;;;;;;5032905;28;20049;-68
2023/01/25 01:19:18;;;;;;;5.65;5.05;;;;;;;;;;5033570;28;20029;-68
2023/01/25 01:21:43;;;;;;;6.15;5.45;;;;;;;;;;5033359;28;20527;-69
2023/01/25 01:24:09;;;;;;;6.45;5.60;;;;;;;;;;5033510;28;20028;-67
2023/01/25 01:26:34;;;;;;;6.05;5.45;;;;;;;;;;5033562;28;20029;-67
2023/01/25 01:29:00;;;;;;;8.40;6.80;;;;;;;;;;5015682;28;20044;-68
2023/01/25 01:31:25;;;;;;;9.07;7.28;;;;;;;;;;5035050;28;20057;-68
2023/01/25 01:34:00;;;;;;;10.52;7.45;;;;;;;;;;5019676;28;20025;-68
2023/01/25 01:36:27;;;;;;;10.38;6.95;;;;;;;;;;5019788;28;20025;-67
2023/01/25 01:38:52;;;;;;;11.25;7.70;;;;;;;;;;5019415;28;20402;-67
2023/01/25 01:41:18;;;;;;;10.15;7.10;;;;;;;;;;5037174;28;20055;-69
2023/01/25 01:43:45;;;;;;;7.07;6.07;;;;;;;;;;5035531;28;20154;-69
2023/01/25 01:46:14;;;;;;;9.48;6.00;;;;;;;;;;5035558;28;20029;-71
2023/01/25 01:48:45;;;;;;;8.63;6.35;;;;;;;;;;5019070;28;20014;-71
2023/01/25 01:51:15;;;;;;;9.88;7.80;;;;;;;;;;5036548;28;20029;-71
2023/01/25 01:56:31;;;;;;;10.10;7.15;;;;;;;;;;5079344;23;21206;-66
2023/01/25 01:59:01;;;;;;;11.70;7.78;;;;;;;;;;5017764;28;20504;-69
2023/01/25 02:01:27;;;;;;;9.93;7.43;;;;;;;;;;5018679;28;20033;-68
2023/01/25 02:03:53;;;;;;;11.68;7.88;;;;;;;;;;5018476;28;20048;-68
2023/01/25 02:06:25;;;;;;;17.70;9.07;;;;;;;;;;5018376;28;20017;-69
2023/01/25 02:08:51;;;;;;;9.73;6.88;;;;;;;;;;5018552;28;20028;-69
2023/01/25 02:11:18;;;;;;;10.90;7.32;;;;;;;;;;5018880;28;20053;-69
2023/01/25 02:13:43;;;;;;;9.18;7.28;;;;;;;;;;5019079;28;20025;-69
2023/01/25 02:16:13;;;;;;;;;;;;;;;;;;5019192;28;20029;-69
2023/01/25 02:18:39;;;;;;;9.52;6.30;;;;;;;;;;5018548;28;19992;-67
2023/01/25 02:21:04;;;;;;;7.93;6.72;;;;;;;;;;5018612;28;20038;-67
2023/01/25 02:23:30;;;;;;;8.65;6.00;;;;;;;;;;5036349;28;20041;-67
2023/01/25 02:25:59;;;;;;;5.75;5.22;;;;;;;;;;5018554;28;20036;-66
2023/01/25 02:28:33;;;;;;;6.15;5.13;;;;;;;;;;5036492;28;20119;-66
2023/01/25 02:30:58;;;;;;;6.88;5.00;;;;;;;;;;5036243;28;20049;-66
2023/01/25 02:33:25;;;;;;;9.77;7.97;;;;;;;;;;5018273;28;20503;-66
2023/01/25 02:36:00;;;;;;;8.25;6.55;;;;;;;;;;5035933;28;20063;-67
2023/01/25 02:38:25;;;;;;;9.13;6.72;;;;;;;;;;5018148;28;20037;-67
2023/01/25 02:40:55;;;;;;;7.78;5.63;;;;;;;;;;5002240;28;20112;-67
2023/01/25 02:43:22;;;;;;;4.53;4.13;;;;;;;;;;5017848;28;20083;-66
2023/01/25 02:45:49;;;;;;;4.15;3.75;;;;;;;;;;5035709;28;20124;-66
2023/01/25 02:48:14;;;;;;;3.70;3.40;;;;;;;;;;5036114;28;20037;-67
2023/01/25 02:50:40;;;;;;;3.97;3.67;;;;;;;;;;5035732;28;20025;-67
2023/01/25 02:53:05;;;;;;;4.95;4.30;;;;;;;;;;5018059;28;20335;-67
2023/01/25 02:55:31;;;;;;;21.95;14.02;;;;;;;;;;5035637;28;20030;-66
2023/01/25 02:57:56;;;;;;;5.28;4.85;;;;;;;;;;5001339;28;20045;-67
2023/01/25 03:00:22;;;;;;;6.57;5.90;;;;;;;;;;5017808;28;20392;-66
2023/01/25 03:02:47;;;;;;;5.78;4.90;;;;;;;;;;5017804;28;20057;-66
2023/01/25 03:05:12;;;;;;;9.80;7.28;;;;;;;;;;5017561;28;20553;-68
2023/01/25 03:07:38;;;;;;;5.07;4.68;;;;;;;;;;5017799;28;20033;-68
2023/01/25 03:10:04;;;;;;;4.53;4.07;;;;;;;;;;5017832;28;20100;-68
2023/01/25 03:12:31;;;;;;;4.70;4.30;;;;;;;;;;5001660;28;20140;-68
2023/01/25 03:14:57;;;;;;;4.90;4.50;;;;;;;;;;5017304;28;20534;-68
2023/01/25 03:17:23;;;;;;;4.43;3.92;;;;;;;;;;5017110;28;20075;-67
2023/01/25 03:19:48;;;;;;;4.47;4.07;;;;;;;;;;5035214;28;20068;-67
2023/01/25 03:22:14;;;;;;;3.97;3.60;;;;;;;;;;5017242;28;20061;-67
2023/01/25 03:24:40;;;;;;;5.18;4.78;;;;;;;;;;5017138;28;20045;-66
2023/01/25 03:27:13;;;;;;;4.20;3.90;;;;;;;;;;5016932;28;20026;-66
2023/01/25 03:30:11;;;;;;;4.80;4.40;;;;;;;;;;5012378;28;20079;-65
2023/01/25 03:32:37;;;;;;;4.47;4.10;;;;;;;;;;5017690;28;20037;-65
2023/01/25 03:35:06;;;;;;;4.53;4.13;;;;;;;;;;5017162;28;20351;-64
2023/01/25 03:37:33;;;;;;;4.68;4.28;;;;;;;;;;5017214;28;20083;-64
2023/01/25 03:39:58;;;;;;;5.07;4.30;;;;;;;;;;5000507;28;20456;-64
2023/01/25 03:42:24;;;;;;;4.15;3.88;;;;;;;;;;5017136;28;20049;-64
2023/01/25 03:44:54;;;;;;;;;;;;;;;;;;5017564;28;20029;-64
2023/01/25 03:47:19;;;;;;;4.73;4.27;;;;;;;;;;5016745;28;19970;-64
2023/01/25 03:49:45;;;;;;;5.32;4.35;;;;;;;;;;5034686;28;20734;-64
2023/01/25 03:52:10;;;;;;;9.85;7.63;;;;;;;;;;5016784;28;20029;-65
2023/01/25 03:54:39;;;;;;;5.97;5.28;;;;;;;;;;5009790;28;20485;-65
2023/01/25 03:57:07;;;;;;;6.07;5.00;;;;;;;;;;4993892;28;20129;-67
2023/01/25 03:59:39;;;;;;;5.05;4.65;;;;;;;;;;4993824;28;20034;-67
2023/01/25 04:02:06;;;;;;;6.07;5.47;;;;;;;;;;4993414;28;20030;-65
2023/01/25 04:04:31;;;;;;;7.50;6.47;;;;;;;;;;4993875;28;20030;-65
2023/01/25 04:06:57;;;;;;;6.35;5.57;;;;;;;;;;4993893;28;20030;-65
2023/01/25 04:09:23;;;;;;;6.50;5.78;;;;;;;;;;4993389;28;20034;-65
2023/01/25 04:11:51;;;;;;;6.80;5.65;;;;;;;;;;4993941;28;20042;-65
2023/01/25 04:14:20;;;;;;;6.78;6.05;;;;;;;;;;5059624;22;20049;-66
2023/01/25 04:16:55;;;;;;;7.32;6.20;;;;;;;;;;5032270;28;20071;-66
2023/01/25 04:19:36;;;;;;;7.97;6.50;;;;;;;;;;5034577;28;20037;-66
2023/01/25 04:22:06;;;;;;;5.68;5.18;;;;;;;;;;5016048;28;20040;-70
2023/01/25 04:24:54;;;;;;;5.82;5.28;;;;;;;;;;5057022;22;20024;-68
2023/01/25 04:27:20;;;;;;;6.78;5.78;;;;;;;;;;5007576;28;20042;-68
2023/01/25 04:30:07;;;;;;;7.13;5.97;;;;;;;;;;4993931;28;20034;-65
2023/01/25 04:32:35;;;;;;;6.45;5.85;;;;;;;;;;4992171;28;20026;-65
2023/01/25 04:35:04;;;;;;;6.80;5.82;;;;;;;;;;4994096;28;20113;-65
2023/01/25 04:37:30;;;;;;;6.82;5.88;;;;;;;;;;4992820;28;20494;-65
2023/01/25 04:39:57;;;;;;;6.97;5.75;;;;;;;;;;4992869;28;20026;-65
2023/01/25 04:42:23;;;;;;;7.85;5.82;;;;;;;;;;4992869;28;20125;-67
2023/01/25 04:44:52;;;;;;;6.28;5.35;;;;;;;;;;4993054;28;20418;-67
2023/01/25 04:47:18;;;;;;;6.15;5.55;;;;;;;;;;4993219;28;20026;-65
2023/01/25 04:49:44;;;;;;;5.93;5.43;;;;;;;;;;4976404;28;20447;-64
2023/01/25 04:52:10;;;;;;;6.40;5.80;;;;;;;;;;4993148;28;20018;-64
2023/01/25 04:54:38;;;;;;;6.20;5.60;;;;;;;;;;4992559;28;20117;-65
2023/01/25 04:57:04;;;;;;;5.75;5.18;;;;;;;;;;4990682;28;20053;-67
2023/01/25 04:59:29;;;;;;;10.13;8.70;;;;;;;;;;4975598;28;20054;-66
2023/01/25 05:01:55;;;;;;;7.30;6.60;;;;;;;;;;4991725;28;20034;-66
2023/01/25 05:04:20;;;;;;;8.52;6.85;;;;;;;;;;4991686;28;20058;-68
2023/01/25 05:06:47;;;;;;;8.35;6.65;;;;;;;;;;4995877;28;20038;-70
2023/01/25 05:09:14;;;;;;;7.63;6.90;;;;;;;;;;4995608;28;20034;-70
2023/01/25 05:11:39;;;;;;;7.10;6.40;;;;;;;;;;4994690;28;20060;-70
2023/01/25 05:14:08;;;;;;;6.78;6.18;;;;;;;;;;4995585;28;20019;-70
2023/01/25 05:16:34;;;;;;;8.13;7.32;;;;;;;;;;4995690;28;20034;-70
2023/01/25 05:19:00;;;;;;;8.50;7.38;;;;;;;;;;4995361;28;20442;-70
2023/01/25 05:21:59;;;;;;;10.32;8.32;;;;;;;;;;4995498;28;20022;-70
2023/01/25 05:24:30;;;;;;;12.05;8.15;;;;;;;;;;4995222;28;20037;-70
2023/01/25 05:27:00;;;;;;;9.38;8.30;;;;;;;;;;4976981;28;20082;-70
2023/01/25 05:29:30;;;;;;;11.95;8.38;;;;;;;;;;4976982;28;20023;-70
2023/01/25 05:32:09;;;;;;;10.95;7.78;;;;;;;;;;4975400;28;20035;-70
2023/01/25 05:34:35;;;;;;;11.68;8.02;;;;;;;;;;4940607;28;20510;-70
2023/01/25 05:37:01;;;;;;;10.80;8.00;;;;;;;;;;4974257;28;20026;-70
2023/01/25 05:39:27;;;;;;;8.30;7.40;;;;;;;;;;4958002;28;20065;-68
2023/01/25 05:41:53;;;;;;;10.93;8.25;;;;;;;;;;4975063;28;20027;-68
2023/01/25 05:44:19;;;;;;;7.55;6.75;;;;;;;;;;4975108;28;20079;-66
2023/01/25 05:46:47;;;;;;;6.68;5.82;;;;;;;;;;4975203;28;20497;-69
2023/01/25 05:49:13;;;;;;;7.10;6.40;;;;;;;;;;4959288;28;20027;-68
2023/01/25 05:51:39;;;;;;;8.38;7.47;;;;;;;;;;4974558;28;20471;-68
2023/01/25 05:54:05;;;;;;;9.27;7.28;;;;;;;;;;4973466;28;20086;-69
2023/01/25 05:56:32;;;;;;;8.75;7.68;;;;;;;;;;4973689;28;20034;-68
2023/01/25 05:58:59;;;;;;;8.77;6.78;;;;;;;;;;4973292;28;20111;-68
2023/01/25 06:01:25;;;;;;;9.15;7.28;;;;;;;;;;4941661;28;20550;-67
2023/01/25 06:03:55;;;;;;;9.13;6.95;;;;;;;;;;4957439;28;20042;-67
2023/01/25 06:06:21;;;;;;;7.95;6.70;;;;;;;;;;4973669;28;20027;-67
2023/01/25 06:08:47;;;;;;;7.47;6.32;;;;;;;;;;4975076;28;20022;-67
2023/01/25 06:11:14;;;;;;;7.35;6.63;;;;;;;;;;4974775;28;20505;-67
2023/01/25 06:13:43;;;;;;;9.02;6.85;;;;;;;;;;4974948;28;20441;-67
2023/01/25 06:16:08;;;;;;;9.40;6.43;;;;;;;;;;4958505;28;20035;-67
2023/01/25 06:18:56;;;;;;;33.55;28.30;;;;;;;;;;4956910;28;20074;-67
2023/01/25 06:21:38;;;;;;;402.33;187.80;;;;;;;;;;4944857;28;20109;-67
2023/01/25 06:24:04;;;;;;;125.90;57.95;;;;;;;;;;4975743;28;20030;-67
2023/01/25 06:26:30;;;;;;;301.45;132.45;;;;;;;;;;4988620;28;20050;-69
2023/01/25 06:28:55;;;;;;;97.38;40.92;;;;;;;;;;4995365;28;20030;-69
2023/01/25 06:31:21;;;;;;;74.95;39.28;;;;;;;;;;4977866;28;20022;-69
2023/01/25 06:33:47;;;;;;;6.18;5.68;;;;;;;;;;4995454;28;20505;-68
2023/01/25 06:36:14;;;;;;;11.70;9.40;;;;;;;;;;4978980;28;20029;-68
2023/01/25 06:38:40;;;;;;;20.10;14.00;;;;;;;;;;4979121;28;20081;-68
2023/01/25 06:41:06;;;;;;;327.50;166.23;;;;;;;;;;4996601;28;20041;-68
2023/01/25 06:43:32;;;;;;;497.42;252.35;;;;;;;;;;4979503;28;20565;-68
2023/01/25 06:46:02;;;;;;;526.38;263.90;;;;;;;;;;4979024;28;20374;-68
2023/01/25 06:48:28;;;;;;;483.98;250.10;;;;;;;;;;4996104;28;20043;-68
2023/01/25 06:50:54;;;;;;;137.45;65.13;;;;;;;;;;4996020;28;20030;-68
2023/01/25 06:53:20;;;;;;;41.00;21.17;;;;;;;;;;4995733;28;20117;-68
2023/01/25 06:55:45;;;;;;;95.25;48.35;;;;;;;;;;4994808;28;20158;-68
2023/01/25 06:58:10;;;;;;;205.90;106.25;;;;;;;;;;4994669;28;20084;-68
2023/01/25 07:00:36;;;;;;;20.52;17.15;;;;;;;;;;4994547;28;20041;-67
2023/01/25 07:03:01;;;;;;;22.20;19.90;;;;;;;;;;4994474;28;20143;-67
2023/01/25 07:05:26;;;;;;;10.32;9.20;;;;;;;;;;4994542;28;20045;-67
2023/01/25 07:07:52;;;;;;;7.93;7.05;;;;;;;;;;4960929;28;20510;-67
2023/01/25 07:10:17;;;;;;;7.20;6.45;;;;;;;;;;4995536;28;20034;-67
2023/01/25 07:12:42;;;;;;;18.67;14.40;;;;;;;;;;4995622;28;20030;-67
2023/01/25 07:15:08;;;;;;;61.15;45.33;;;;;;;;;;4995568;28;20441;-67
2023/01/25 07:17:33;;;;;;;39.38;30.33;;;;;;;;;;4995554;28;20372;-67
2023/01/25 07:19:58;;;;;;;12.50;11.20;;;;;;;;;;4978115;28;20030;-67
2023/01/25 07:22:24;;;;;;;13.85;12.00;;;;;;;;;;4995347;28;20036;-67
2023/01/25 07:24:51;;;;;;;15.23;12.93;;;;;;;;;;4995400;28;20041;-67
2023/01/25 07:27:16;;;;;;;30.85;20.63;;;;;;;;;;4995208;28;20125;-67
2023/01/25 07:29:42;;;;;;;87.68;61.03;;;;;;;;;;4976909;28;20058;-67
2023/01/25 07:32:08;;;;;;;64.35;44.72;;;;;;;;;;4995255;28;20038;-67
2023/01/25 07:34:33;;;;;;;20.13;14.93;;;;;;;;;;4995225;28;20068;-67
2023/01/25 07:36:58;;;;;;;18.02;16.13;;;;;;;;;;4995243;28;20030;-67
2023/01/25 07:39:24;;;;;;;22.70;19.27;;;;;;;;;;4995173;28;20030;-67
2023/01/25 07:41:49;;;;;;;18.75;16.35;;;;;;;;;;4995006;28;20117;-67
2023/01/25 07:44:17;;;;;;;27.73;20.85;;;;;;;;;;4961842;28;20109;-67
2023/01/25 07:46:46;;;;;;;34.63;28.67;;;;;;;;;;4977592;28;20032;-67
2023/01/25 07:49:11;;;;;;;18.73;15.68;;;;;;;;;;4994985;28;20022;-67
2023/01/25 07:51:36;;;;;;;48.70;37.83;;;;;;;;;;4994935;28;20109;-67
2023/01/25 07:54:03;;;;;;;77.93;54.90;;;;;;;;;;4977408;28;20490;-67
2023/01/25 07:56:29;;;;;;;49.28;40.00;;;;;;;;;;4994860;28;20089;-67
2023/01/25 07:58:55;;;;;;;52.63;41.50;;;;;;;;;;4977418;28;20100;-67
2023/01/25 08:01:22;;;;;;;36.00;28.33;;;;;;;;;;4994790;28;20467;-67
2023/01/25 08:03:48;;;;;;;14.07;11.00;;;;;;;;;;4977329;28;20058;-67
2023/01/25 08:06:15;;;;;;;7.88;7.10;;;;;;;;;;4977295;28;20061;-67
2023/01/25 08:08:41;;;;;;;19.17;15.75;;;;;;;;;;4994723;28;20026;-67
2023/01/25 08:11:13;;;;;;;21.33;15.98;;;;;;;;;;4977164;28;20451;-67
2023/01/25 08:13:39;;;;;;;84.57;48.80;;;;;;;;;;4977124;28;20101;-67
2023/01/25 08:16:04;;;;;;;140.32;74.30;;;;;;;;;;4977103;28;20454;-68
2023/01/25 08:18:29;;;;;;;53.08;29.20;;;;;;;;;;4994616;28;20038;-67
2023/01/25 08:20:58;;;;;;;137.95;70.53;;;;;;;;;;4994573;28;20026;-67
2023/01/25 08:23:24;;;;;;;98.75;41.63;;;;;;;;;;4994332;28;20431;-67
2023/01/25 08:25:49;;;;;;;50.33;23.40;;;;;;;;;;4994243;28;20181;-67
2023/01/25 08:28:15;;;;;;;20.52;13.13;;;;;;;;;;4994387;28;20038;-67
2023/01/25 08:30:41;;;;;;;12.18;9.43;;;;;;;;;;4994353;28;20026;-67
2023/01/25 08:33:06;;;;;;;13.68;10.43;;;;;;;;;;4994252;28;20386;-67
2023/01/25 08:35:31;;;;;;;22.40;13.27;;;;;;;;;;4994241;28;20038;-67
2023/01/25 08:37:57;;;;;;;12.63;8.57;;;;;;;;;;4994335;28;20034;-67
2023/01/25 08:40:22;;;;;;;10.35;8.85;;;;;;;;;;4976385;28;20026;-67
2023/01/25 08:42:48;;;;;;;68.47;36.10;;;;;;;;;;4994095;28;20030;-67
2023/01/25 08:45:13;;;;;;;26.58;16.10;;;;;;;;;;4994165;28;20023;-67
2023/01/25 08:47:39;;;;;;;20.70;13.63;;;;;;;;;;4976795;28;20467;-67
2023/01/25 08:50:04;;;;;;;13.77;9.85;;;;;;;;;;4994151;28;20073;-67
2023/01/25 08:52:31;;;;;;;36.92;25.13;;;;;;;;;;4994253;28;20185;-67
2023/01/25 08:54:56;;;;;;;30.83;20.00;;;;;;;;;;4994041;28;20038;-67
2023/01/25 08:57:22;;;;;;;30.42;16.02;;;;;;;;;;4994117;28;20045;-67
2023/01/25 08:59:47;;;;;;;5.80;5.25;;;;;;;;;;4994035;28;20029;-67
2023/01/25 09:02:12;;;;;;;12.48;9.57;;;;;;;;;;4976719;28;20038;-67
2023/01/25 09:04:38;;;;;;;11.57;7.30;;;;;;;;;;4976590;28;20031;-67
2023/01/25 09:07:04;;;;;;;16.13;10.10;;;;;;;;;;4976665;28;20487;-67
2023/01/25 09:09:30;;;;;;;15.02;9.63;;;;;;;;;;4976585;28;20088;-67
2023/01/25 09:11:55;;;;;;;4.30;3.90;;;;;;;;;;4993856;28;20026;-67
2023/01/25 09:14:21;;;;;;;4.85;4.32;;;;;;;;;;5039767;23;20068;-67
2023/01/25 09:16:46;;;;;;;3.25;3.05;;;;;;;;;;5033231;28;20025;-67
2023/01/25 09:19:14;;;;;;;4.78;4.40;;;;;;;;;;5031867;28;20108;-67
2023/01/25 09:21:39;;;;;;;6.25;5.65;;;;;;;;;;5065678;28;20049;-67
2023/01/25 09:24:30;;;;;;;7.78;6.97;;;;;;;;;;5039083;23;20069;-66
2023/01/25 09:26:55;;;;;;;4.72;4.43;;;;;;;;;;5074100;22;20059;-67
2023/01/25 09:29:21;;;;;;;9.25;7.72;;;;;;;;;;5053013;28;20100;-67
2023/01/25 09:31:46;;;;;;;5.60;5.10;;;;;;;;;;5035200;28;20392;-67
2023/01/25 09:34:42;;;;;;;6.50;5.90;;;;;;;;;;5025405;28;20036;-67
2023/01/25 09:37:08;;;;;;;4.43;4.13;;;;;;;;;;5035046;28;20025;-67
2023/01/25 09:39:34;;;;;;;4.35;3.67;;;;;;;;;;5052957;28;20079;-67
2023/01/25 09:42:02;;;;;;;6.05;5.55;;;;;;;;;;5035088;28;20072;-67
2023/01/25 09:44:37;;;;;;;4.30;4.00;;;;;;;;;;5051568;28;20048;-67
2023/01/25 09:47:13;;;;;;;5.82;5.32;;;;;;;;;;5052843;28;20021;-67
2023/01/25 09:49:51;;;;;;;7.30;6.68;;;;;;;;;;5052867;28;20453;-67
2023/01/25 09:52:35;;;;;;;6.43;5.82;;;;;;;;;;5036375;28;20488;-67
2023/01/25 09:55:01;;;;;;;9.05;8.25;;;;;;;;;;5038568;28;20454;-67
2023/01/25 09:57:26;;;;;;;5.20;4.80;;;;;;;;;;5055099;28;20056;-67
2023/01/25 09:59:52;;;;;;;8.38;7.57;;;;;;;;;;5038396;28;20017;-67
2023/01/25 10:02:23;;;;;;;8.35;7.28;;;;;;;;;;5056265;28;20083;-67
2023/01/25 10:04:51;;;;;;;8.98;7.32;;;;;;;;;;5054973;28;20021;-67
2023/01/25 10:07:22;;;;;;;7.18;6.47;;;;;;;;;;5056199;28;20033;-67
2023/01/25 10:09:48;;;;;;;7.63;5.97;;;;;;;;;;5038117;28;20443;-67
2023/01/25 10:12:21;;;;;;;7.78;7.07;;;;;;;;;;5054863;28;20032;-67
2023/01/25 10:14:47;;;;;;;12.93;9.52;;;;;;;;;;5055992;28;20092;-68
2023/01/25 10:17:28;;;;;;;19.67;15.15;;;;;;;;;;5038080;28;20037;-67
2023/01/25 10:19:54;;;;;;;;;;;;;;;;;;5056353;28;20112;-67
2023/01/25 10:22:21;;;;;;;9.13;8.32;;;;;;;;;;5055757;28;19935;-67
2023/01/25 10:24:46;;;;;;;4.63;4.32;;;;;;;;;;5038122;28;20017;-67
2023/01/25 10:27:24;;;;;;;7.60;6.32;;;;;;;;;;5055611;28;20045;-67
2023/01/25 10:29:51;;;;;;;6.65;6.05;;;;;;;;;;5055710;28;20496;-67
2023/01/25 10:32:37;;;;;;;8.77;7.88;;;;;;;;;;5055763;28;20043;-67
2023/01/25 10:35:15;;;;;;;20.02;14.73;;;;;;;;;;5055047;28;20647;-67
2023/01/25 10:37:41;;;;;;;11.35;9.15;;;;;;;;;;5055678;28;20492;-67
2023/01/25 10:40:15;;;;;;;11.43;10.23;;;;;;;;;;5055526;28;20068;-67
2023/01/25 10:42:47;;;;;;;14.30;12.85;;;;;;;;;;5055489;28;20033;-67
2023/01/25 10:45:13;;;;;;;11.18;10.10;;;;;;;;;;5054398;28;20040;-67
2023/01/25 10:47:41;;;;;;;22.58;18.92;;;;;;;;;;5055526;28;20384;-67
2023/01/25 10:50:06;;;;;;;13.55;12.23;;;;;;;;;;5037512;28;20496;-67
2023/01/25 10:52:37;;;;;;;21.85;18.55;;;;;;;;;;5055402;28;20104;-67
2023/01/25 10:55:06;;;;;;;12.00;10.80;;;;;;;;;;5055295;28;20037;-67
2023/01/25 10:57:31;;;;;;;7.05;6.35;;;;;;;;;;5055483;28;20033;-67
2023/01/25 10:59:58;;;;;;;7.90;7.20;;;;;;;;;;5037429;28;20441;-67
2023/01/25 11:02:42;;;;;;;7.47;6.72;;;;;;;;;;5037012;28;20440;-67
2023/01/25 11:05:17;;;;;;;11.48;9.77;;;;;;;;;;5055178;28;20385;-67
2023/01/25 11:07:42;;;;;;;7.82;7.03;;;;;;;;;;5037244;28;20025;-67
2023/01/25 11:10:26;;;;;;;7.55;6.53;;;;;;;;;;5054973;28;20021;-67
2023/01/25 11:13:15;;;;;;;17.50;12.18;;;;;;;;;;5055051;28;20489;-67
2023/01/25 11:15:43;;;;;;;9.20;6.60;;;;;;;;;;5054868;28;20171;-67
2023/01/25 11:18:22;;;;;;;6.03;5.50;;;;;;;;;;5055017;28;20159;-67
2023/01/25 11:21:09;;;;;;;6.00;5.50;;;;;;;;;;5054913;28;20025;-67
2023/01/25 11:23:34;;;;;;;6.70;6.05;;;;;;;;;;5037282;28;20049;-67
2023/01/25 11:26:25;;;;;;;15.90;11.70;;;;;;;;;;5054393;28;20024;-68
2023/01/25 11:29:04;;;;;;;9.88;8.50;;;;;;;;;;5051510;28;20123;-67
2023/01/25 11:31:29;;;;;;;7.32;6.65;;;;;;;;;;5054538;28;20032;-67
2023/01/25 11:33:55;;;;;;;6.07;5.45;;;;;;;;;;5054507;28;20025;-67
2023/01/25 11:36:32;;;;;;;7.47;6.78;;;;;;;;;;5036643;28;20021;-67
2023/01/25 11:39:12;;;;;;;7.93;7.13;;;;;;;;;;5036730;28;20549;-67
2023/01/25 11:41:38;;;;;;;;;;;;;;;;;;5067442;23;20519;-67
2023/01/25 11:44:09;;;;;;;9.98;8.45;;;;;;;;;;5036283;28;19917;-68
2023/01/25 11:46:41;;;;;;;22.02;14.57;;;;;;;;;;5054225;28;20159;-67
2023/01/25 11:49:15;;;;;;;35.78;21.35;;;;;;;;;;5054302;28;20421;-67
2023/01/25 11:51:48;;;;;;;20.52;14.43;;;;;;;;;;5036494;28;20029;-67
2023/01/25 11:54:26;;;;;;;29.20;20.70;;;;;;;;;;5084423;23;20049;-67
2023/01/25 11:57:10;;;;;;;23.60;16.05;;;;;;;;;;5061499;22;20084;-67
2023/01/25 11:59:44;;;;;;;11.02;9.82;;;;;;;;;;5036413;28;20428;-67
2023/01/25 12:02:21;;;;;;;19.17;13.93;;;;;;;;;;5053921;28;20037;-66
2023/01/25 12:04:53;;;;;;;18.98;13.13;;;;;;;;;;5054007;28;20504;-67
2023/01/25 12:07:25;;;;;;;7.78;7.03;;;;;;;;;;5053868;28;20037;-67
2023/01/25 12:09:51;;;;;;;18.80;14.43;;;;;;;;;;5053966;28;20021;-67
2023/01/25 12:12:19;;;;;;;18.80;14.35;;;;;;;;;;5053865;28;20492;-67
2023/01/25 12:14:54;;;;;;;12.15;9.73;;;;;;;;;;5035663;28;20428;-67
2023/01/25 12:17:38;;;;;;;33.63;23.13;;;;;;;;;;5036120;28;20037;-67
2023/01/25 12:20:09;;;;;;;23.65;17.38;;;;;;;;;;5053929;28;20167;-67
2023/01/25 12:22:45;;;;;;;23.35;17.23;;;;;;;;;;5035871;28;20435;-67
2023/01/25 12:25:37;;;;;;;22.65;17.27;;;;;;;;;;5035792;28;20064;-67
2023/01/25 12:28:09;;;;;;;9.43;8.40;;;;;;;;;;5050694;28;20052;-66
2023/01/25 12:30:34;;;;;;;38.08;32.13;;;;;;;;;;5053564;28;20037;-67
2023/01/25 12:33:12;;;;;;;61.10;46.10;;;;;;;;;;5053519;28;20152;-67
2023/01/25 12:35:40;;;;;;;61.42;47.58;;;;;;;;;;5053485;28;20396;-66
2023/01/25 12:38:09;;;;;;;32.40;27.48;;;;;;;;;;5053493;28;20029;-67
2023/01/25 12:40:37;;;;;;;67.80;47.15;;;;;;;;;;5053496;28;20037;-67
2023/01/25 12:43:04;;;;;;;22.08;17.50;;;;;;;;;;5035676;28;20381;-67
2023/01/25 12:45:32;;;;;;;40.58;34.25;;;;;;;;;;5035676;28;20033;-67
2023/01/25 12:48:01;;;;;;;28.33;23.27;;;;;;;;;;5053377;28;20100;-67
2023/01/25 12:50:32;;;;;;;25.77;19.00;;;;;;;;;;5035530;28;20068;-67
2023/01/25 12:53:11;;;;;;;24.65;19.98;;;;;;;;;;5035431;28;20100;-67
2023/01/25 12:55:37;;;;;;;8.60;7.50;;;;;;;;;;5033377;28;20035;-67
2023/01/25 12:58:11;;;;;;;9.35;7.10;;;;;;;;;;5033477;28;20397;-67
2023/01/25 13:00:48;;;;;;;17.67;11.52;;;;;;;;;;5015827;28;20108;-67
2023/01/25 13:03:23;;;;;;;21.35;12.95;;;;;;;;;;5033287;28;20068;-67
2023/01/25 13:06:05;;;;;;;25.02;15.00;;;;;;;;;;5033342;28;20473;-67
2023/01/25 13:08:36;;;;;;;18.52;11.13;;;;;;;;;;5033194;28;20028;-67
2023/01/25 13:11:04;;;;;;;14.40;10.57;;;;;;;;;;5015506;28;20444;-67
2023/01/25 13:13:30;;;;;;;12.82;9.32;;;;;;;;;;5015532;28;20039;-67
2023/01/25 13:15:55;;;;;;;14.40;10.50;;;;;;;;;;5015650;28;20108;-67
2023/01/25 13:18:23;;;;;;;26.15;16.48;;;;;;;;;;5015412;28;20033;-67
2023/01/25 13:20:49;;;;;;;23.55;14.50;;;;;;;;;;5033233;28;20029;-67
2023/01/25 13:23:33;;;;;;;17.55;11.88;;;;;;;;;;5033030;28;20465;-67
2023/01/25 13:26:30;;;;;;;26.50;13.20;;;;;;;;;;5033282;28;20485;-67
2023/01/25 13:28:58;;;;;;;43.13;23.13;;;;;;;;;;5019093;28;20494;-67
2023/01/25 13:31:38;;;;;;;37.00;22.10;;;;;;;;;;5002894;28;20390;-67
2023/01/25 13:34:04;;;;;;;;;;;;;;;;;;5037461;28;20035;-67
2023/01/25 13:36:36;;;;;;;29.25;16.73;;;;;;;;;;5019069;28;19908;-67
2023/01/25 13:39:22;;;;;;;18.05;11.35;;;;;;;;;;5019037;28;20507;-67
2023/01/25 13:41:57;;;;;;;19.00;11.48;;;;;;;;;;5036663;28;20036;-67
2023/01/25 13:44:27;;;;;;;13.05;9.40;;;;;;;;;;5019180;28;20116;-67
2023/01/25 13:46:52;;;;;;;17.83;11.10;;;;;;;;;;5018910;28;20013;-67
2023/01/25 13:49:21;;;;;;;43.35;21.75;;;;;;;;;;5018828;28;20396;-67
2023/01/25 13:51:46;;;;;;;23.83;14.45;;;;;;;;;;5018731;28;20502;-67
2023/01/25 13:54:14;;;;;;;23.42;13.95;;;;;;;;;;5036490;28;20030;-67
2023/01/25 13:56:41;;;;;;;19.58;12.63;;;;;;;;;;5012916;28;20071;-67
2023/01/25 13:59:22;;;;;;;32.17;16.70;;;;;;;;;;5038511;28;20129;-67
2023/01/25 14:01:47;;;;;;;26.52;14.52;;;;;;;;;;5038441;28;20083;-67
2023/01/25 14:04:12;;;;;;;25.55;14.60;;;;;;;;;;5056206;28;20028;-67
2023/01/25 14:06:39;;;;;;;18.10;11.13;;;;;;;;;;5056210;28;20035;-67
2023/01/25 14:09:15;;;;;;;18.17;11.93;;;;;;;;;;5056145;28;20037;-67
2023/01/25 14:11:47;;;;;;;21.63;13.57;;;;;;;;;;5038265;28;20033;-66
2023/01/25 14:14:23;;;;;;;26.88;16.75;;;;;;;;;;5056011;28;20029;-66
2023/01/25 14:17:07;;;;;;;20.30;12.43;;;;;;;;;;5038168;28;20041;-66
2023/01/25 14:19:37;;;;;;;32.38;23.58;;;;;;;;;;5055938;28;20029;-66
2023/01/25 14:22:21;;;;;;;26.45;16.58;;;;;;;;;;5055575;28;20029;-66
2023/01/25 14:25:26;;;;;;;75.47;38.80;;;;;;;;;;5055741;28;20477;-67
2023/01/25 14:27:55;;;;;;;62.45;38.95;;;;;;;;;;4955179;29;20032;-67
2023/01/25 14:30:25;;;;;;;44.35;25.50;;;;;;;;;;4954340;29;20054;-67
2023/01/25 14:32:52;;;;;;;32.75;18.60;;;;;;;;;;5006617;28;20045;-67
2023/01/25 14:35:35;;;;;;;34.38;22.33;;;;;;;;;;5038199;28;20028;-74
2023/01/25 14:38:01;;;;;;;46.95;24.17;;;;;;;;;;5037056;28;20028;-74
2023/01/25 14:40:27;;;;;;;50.50;22.98;;;;;;;;;;5055045;28;20031;-69
2023/01/25 14:42:53;;;;;;;46.33;22.77;;;;;;;;;;5054082;28;20037;-69
2023/01/25 14:45:19;;;;;;;34.65;20.92;;;;;;;;;;5054695;28;20513;-69
2023/01/25 14:47:44;;;;;;;27.08;17.90;;;;;;;;;;5054932;28;20033;-69